M28 weather

Mid Continent Airport
Hayti, Missouri, United States

Public forecast

Using degrees Fahrenheit for public forecast. Weather courtesy of forecast.io.

METAR (pilot weather report)

Closest report is Kennett Memorial Airport, 15.0 nm (27.7 km) W. Retrieved 2019/05/24 10:35 UTC (0 seconds ago):

KTKX 241035Z AUTO 00000KT 6SM BR CLR 20/20 A3007 RMK AO2

TAF (pilot weather forecast)

Closest forecast is Jonesboro Municipal Airport, 50.5 nm (93.5 km) WSW. Retrieved 2019/05/24 06:22 UTC (4 hours ago):

TAF KJBR 240520Z 2406/2506 18004KT P6SM SCT250 FM241500 21011G18KT P6SM FEW050 SCT250 FM250200 19005KT P6SM SCT250